sensor_id;sensor_type;location;lat;lon;timestamp;temperature;humidity
60309;DHT22;50313;52.894;6.492;2023-04-25T00:00:26;6.00;99.90
60309;DHT22;50313;52.894;6.492;2023-04-25T00:02:57;5.90;99.90
60309;DHT22;50313;52.894;6.492;2023-04-25T00:05:26;5.90;99.90
60309;DHT22;50313;52.894;6.492;2023-04-25T00:07:52;5.90;99.90
60309;DHT22;50313;52.894;6.492;2023-04-25T00:10:21;5.90;99.90
60309;DHT22;50313;52.894;6.492;2023-04-25T00:12:51;5.80;99.90
60309;DHT22;50313;52.894;6.492;2023-04-25T00:15:19;5.80;99.90
60309;DHT22;50313;52.894;6.492;2023-04-25T00:17:47;5.80;99.90
60309;DHT22;50313;52.894;6.492;2023-04-25T00:20:15;5.70;99.90
60309;DHT22;50313;52.894;6.492;2023-04-25T00:22:41;5.80;99.90
60309;DHT22;50313;52.894;6.492;2023-04-25T00:25:10;5.70;99.90
60309;DHT22;50313;52.894;6.492;2023-04-25T00:27:36;5.60;99.90
60309;DHT22;50313;52.894;6.492;2023-04-25T00:30:05;5.50;99.90
60309;DHT22;50313;52.894;6.492;2023-04-25T00:32:31;5.40;99.90
60309;DHT22;50313;52.894;6.492;2023-04-25T00:34:57;5.50;99.90
60309;DHT22;50313;52.894;6.492;2023-04-25T00:37:23;5.50;99.90
60309;DHT22;50313;52.894;6.492;2023-04-25T00:39:50;5.50;99.90
60309;DHT22;50313;52.894;6.492;2023-04-25T00:42:16;5.60;99.90
60309;DHT22;50313;52.894;6.492;2023-04-25T00:44:43;5.60;99.90
60309;DHT22;50313;52.894;6.492;2023-04-25T00:47:11;5.70;99.90
60309;DHT22;50313;52.894;6.492;2023-04-25T00:49:37;5.70;99.90
60309;DHT22;50313;52.894;6.492;2023-04-25T00:52:02;5.70;99.90
60309;DHT22;50313;52.894;6.492;2023-04-25T00:54:28;5.70;99.90
60309;DHT22;50313;52.894;6.492;2023-04-25T00:56:57;5.70;99.90
60309;DHT22;50313;52.894;6.492;2023-04-25T00:59:23;5.70;99.90
60309;DHT22;50313;52.894;6.492;2023-04-25T01:01:49;5.70;99.90
60309;DHT22;50313;52.894;6.492;2023-04-25T01:04:18;5.70;99.90
60309;DHT22;50313;52.894;6.492;2023-04-25T01:06:44;5.60;99.90
60309;DHT22;50313;52.894;6.492;2023-04-25T01:09:10;5.50;99.90
60309;DHT22;50313;52.894;6.492;2023-04-25T01:11:36;5.40;99.90
60309;DHT22;50313;52.894;6.492;2023-04-25T01:14:02;5.30;99.90
60309;DHT22;50313;52.894;6.492;2023-04-25T01:16:28;5.30;99.90
60309;DHT22;50313;52.894;6.492;2023-04-25T01:18:57;5.30;99.90
60309;DHT22;50313;52.894;6.492;2023-04-25T01:21:23;5.20;99.90
60309;DHT22;50313;52.894;6.492;2023-04-25T01:23:52;5.20;99.90
60309;DHT22;50313;52.894;6.492;2023-04-25T01:26:35;5.20;99.90
60309;DHT22;50313;52.894;6.492;2023-04-25T01:29:11;5.10;99.90
60309;DHT22;50313;52.894;6.492;2023-04-25T01:35:56;5.30;99.90
60309;DHT22;50313;52.894;6.492;2023-04-25T01:38:33;5.20;99.90
60309;DHT22;50313;52.894;6.492;2023-04-25T01:44:21;5.20;99.90
60309;DHT22;50313;52.894;6.492;2023-04-25T01:47:09;5.20;99.90
60309;DHT22;50313;52.894;6.492;2023-04-25T01:49:54;5.20;99.90
60309;DHT22;50313;52.894;6.492;2023-04-25T01:52:19;5.30;99.90
60309;DHT22;50313;52.894;6.492;2023-04-25T01:54:57;5.30;99.90
60309;DHT22;50313;52.894;6.492;2023-04-25T01:57:32;5.30;99.90
60309;DHT22;50313;52.894;6.492;2023-04-25T02:00:14;5.30;99.90
60309;DHT22;50313;52.894;6.492;2023-04-25T02:03:27;5.30;99.90
60309;DHT22;50313;52.894;6.492;2023-04-25T02:06:30;5.20;99.90
60309;DHT22;50313;52.894;6.492;2023-04-25T02:10:01;5.40;99.90
60309;DHT22;50313;52.894;6.492;2023-04-25T02:16:47;5.50;99.90
60309;DHT22;50313;52.894;6.492;2023-04-25T02:19:18;5.50;99.90
60309;DHT22;50313;52.894;6.492;2023-04-25T02:21:46;5.50;99.90
60309;DHT22;50313;52.894;6.492;2023-04-25T02:24:15;5.50;99.90
60309;DHT22;50313;52.894;6.492;2023-04-25T02:26:50;5.50;99.90
60309;DHT22;50313;52.894;6.492;2023-04-25T02:29:26;5.40;99.90
60309;DHT22;50313;52.894;6.492;2023-04-25T02:31:54;5.40;99.90
60309;DHT22;50313;52.894;6.492;2023-04-25T02:34:29;5.40;99.90
60309;DHT22;50313;52.894;6.492;2023-04-25T02:37:14;5.40;99.90
60309;DHT22;50313;52.894;6.492;2023-04-25T02:40:02;5.40;99.90
60309;DHT22;50313;52.894;6.492;2023-04-25T02:42:36;5.30;99.90
60309;DHT22;50313;52.894;6.492;2023-04-25T02:45:13;5.30;99.90
60309;DHT22;50313;52.894;6.492;2023-04-25T02:47:42;5.30;99.90
60309;DHT22;50313;52.894;6.492;2023-04-25T02:50:29;5.30;99.90
60309;DHT22;50313;52.894;6.492;2023-04-25T02:53:13;5.20;99.90
60309;DHT22;50313;52.894;6.492;2023-04-25T02:55:58;5.20;99.90
60309;DHT22;50313;52.894;6.492;2023-04-25T02:58:28;5.20;99.90
60309;DHT22;50313;52.894;6.492;2023-04-25T03:01:04;5.20;99.90
60309;DHT22;50313;52.894;6.492;2023-04-25T03:03:37;5.10;99.90
60309;DHT22;50313;52.894;6.492;2023-04-25T03:06:05;5.10;99.90
60309;DHT22;50313;52.894;6.492;2023-04-25T03:08:46;5.10;99.90
60309;DHT22;50313;52.894;6.492;2023-04-25T03:11:14;5.10;99.90
60309;DHT22;50313;52.894;6.492;2023-04-25T03:13:43;5.10;99.90
60309;DHT22;50313;52.894;6.492;2023-04-25T03:16:19;5.10;99.90
60309;DHT22;50313;52.894;6.492;2023-04-25T03:19:16;5.10;99.90
60309;DHT22;50313;52.894;6.492;2023-04-25T03:21:52;5.10;99.90
60309;DHT22;50313;52.894;6.492;2023-04-25T03:24:21;5.20;99.90
60309;DHT22;50313;52.894;6.492;2023-04-25T03:26:47;4.80;99.90
60309;DHT22;50313;52.894;6.492;2023-04-25T03:29:19;4.70;99.90
60309;DHT22;50313;52.894;6.492;2023-04-25T03:31:53;4.60;99.90
60309;DHT22;50313;52.894;6.492;2023-04-25T03:34:21;4.50;99.90
60309;DHT22;50313;52.894;6.492;2023-04-25T03:36:50;4.50;99.90
60309;DHT22;50313;52.894;6.492;2023-04-25T03:39:26;4.40;99.90
60309;DHT22;50313;52.894;6.492;2023-04-25T03:41:55;4.40;99.90
60309;DHT22;50313;52.894;6.492;2023-04-25T03:44:26;4.40;99.90
60309;DHT22;50313;52.894;6.492;2023-04-25T03:46:52;4.50;99.90
60309;DHT22;50313;52.894;6.492;2023-04-25T03:49:20;4.50;99.90
60309;DHT22;50313;52.894;6.492;2023-04-25T03:51:46;4.50;99.90
60309;DHT22;50313;52.894;6.492;2023-04-25T03:54:17;4.50;99.90
60309;DHT22;50313;52.894;6.492;2023-04-25T03:56:50;4.50;99.90
60309;DHT22;50313;52.894;6.492;2023-04-25T03:59:21;4.50;99.90
60309;DHT22;50313;52.894;6.492;2023-04-25T04:01:47;4.40;99.90
60309;DHT22;50313;52.894;6.492;2023-04-25T04:04:21;4.40;99.90
60309;DHT22;50313;52.894;6.492;2023-04-25T04:07:03;4.40;99.90
60309;DHT22;50313;52.894;6.492;2023-04-25T04:09:42;4.40;99.90
60309;DHT22;50313;52.894;6.492;2023-04-25T04:15:03;4.40;99.90
60309;DHT22;50313;52.894;6.492;2023-04-25T04:17:32;4.40;99.90
60309;DHT22;50313;52.894;6.492;2023-04-25T04:20:31;4.50;99.90
60309;DHT22;50313;52.894;6.492;2023-04-25T04:23:03;4.40;99.90
60309;DHT22;50313;52.894;6.492;2023-04-25T04:25:32;4.40;99.90
60309;DHT22;50313;52.894;6.492;2023-04-25T04:28:00;4.40;99.90
60309;DHT22;50313;52.894;6.492;2023-04-25T04:30:29;4.50;99.90
60309;DHT22;50313;52.894;6.492;2023-04-25T04:33:08;4.60;99.90
60309;DHT22;50313;52.894;6.492;2023-04-25T04:36:16;4.40;99.90
60309;DHT22;50313;52.894;6.492;2023-04-25T04:38:44;4.70;99.90
60309;DHT22;50313;52.894;6.492;2023-04-25T04:44:05;4.70;99.90
60309;DHT22;50313;52.894;6.492;2023-04-25T04:46:34;4.80;99.90
60309;DHT22;50313;52.894;6.492;2023-04-25T04:49:09;4.70;99.90
60309;DHT22;50313;52.894;6.492;2023-04-25T04:51:42;4.60;99.90
60309;DHT22;50313;52.894;6.492;2023-04-25T04:54:13;4.60;99.90
60309;DHT22;50313;52.894;6.492;2023-04-25T04:56:41;4.50;99.90
60309;DHT22;50313;52.894;6.492;2023-04-25T04:59:25;4.40;99.90
60309;DHT22;50313;52.894;6.492;2023-04-25T05:02:30;4.40;99.90
60309;DHT22;50313;52.894;6.492;2023-04-25T05:05:26;4.40;99.90
60309;DHT22;50313;52.894;6.492;2023-04-25T05:07:54;4.20;99.90
60309;DHT22;50313;52.894;6.492;2023-04-25T05:10:20;4.50;99.90
60309;DHT22;50313;52.894;6.492;2023-04-25T05:12:52;4.40;99.90
60309;DHT22;50313;52.894;6.492;2023-04-25T05:15:23;4.40;99.90
60309;DHT22;50313;52.894;6.492;2023-04-25T05:18:26;4.40;99.90
60309;DHT22;50313;52.894;6.492;2023-04-25T05:20:52;4.50;99.90
60309;DHT22;50313;52.894;6.492;2023-04-25T05:23:25;4.60;99.90
60309;DHT22;50313;52.894;6.492;2023-04-25T05:25:55;4.50;99.90
60309;DHT22;50313;52.894;6.492;2023-04-25T05:28:21;4.50;99.90
60309;DHT22;50313;52.894;6.492;2023-04-25T05:30:50;4.70;99.90
60309;DHT22;50313;52.894;6.492;2023-04-25T05:33:19;4.80;99.90
60309;DHT22;50313;52.894;6.492;2023-04-25T05:35:48;5.00;99.90
60309;DHT22;50313;52.894;6.492;2023-04-25T05:38:22;5.10;99.90
60309;DHT22;50313;52.894;6.492;2023-04-25T05:40:50;5.20;99.90
60309;DHT22;50313;52.894;6.492;2023-04-25T05:43:19;5.30;99.90
60309;DHT22;50313;52.894;6.492;2023-04-25T05:45:45;5.40;99.90
60309;DHT22;50313;52.894;6.492;2023-04-25T05:48:11;5.40;99.90
60309;DHT22;50313;52.894;6.492;2023-04-25T05:50:47;5.40;99.90
60309;DHT22;50313;52.894;6.492;2023-04-25T05:53:13;5.50;99.90
60309;DHT22;50313;52.894;6.492;2023-04-25T05:55:41;5.50;99.90
60309;DHT22;50313;52.894;6.492;2023-04-25T05:58:10;5.50;99.90
60309;DHT22;50313;52.894;6.492;2023-04-25T06:00:45;5.60;99.90
60309;DHT22;50313;52.894;6.492;2023-04-25T06:03:14;5.60;99.90
60309;DHT22;50313;52.894;6.492;2023-04-25T06:05:43;5.70;99.90
60309;DHT22;50313;52.894;6.492;2023-04-25T06:08:12;5.70;99.90
60309;DHT22;50313;52.894;6.492;2023-04-25T06:10:38;5.80;99.90
60309;DHT22;50313;52.894;6.492;2023-04-25T06:13:04;5.80;99.90
60309;DHT22;50313;52.894;6.492;2023-04-25T06:15:36;5.90;99.90
60309;DHT22;50313;52.894;6.492;2023-04-25T06:18:06;5.90;99.90
60309;DHT22;50313;52.894;6.492;2023-04-25T06:20:32;6.00;99.90
60309;DHT22;50313;52.894;6.492;2023-04-25T06:22:58;5.80;99.90
60309;DHT22;50313;52.894;6.492;2023-04-25T06:25:26;5.90;99.90
60309;DHT22;50313;52.894;6.492;2023-04-25T06:27:52;5.80;99.90
60309;DHT22;50313;52.894;6.492;2023-04-25T06:30:22;5.70;99.90
60309;DHT22;50313;52.894;6.492;2023-04-25T06:32:52;5.70;99.90
60309;DHT22;50313;52.894;6.492;2023-04-25T06:35:21;5.80;99.90
60309;DHT22;50313;52.894;6.492;2023-04-25T06:37:52;5.90;99.90
60309;DHT22;50313;52.894;6.492;2023-04-25T06:40:18;6.00;99.90
60309;DHT22;50313;52.894;6.492;2023-04-25T06:42:47;6.10;99.90
60309;DHT22;50313;52.894;6.492;2023-04-25T06:45:15;6.30;99.90
60309;DHT22;50313;52.894;6.492;2023-04-25T06:47:50;6.50;99.90
60309;DHT22;50313;52.894;6.492;2023-04-25T06:50:19;6.40;99.90
60309;DHT22;50313;52.894;6.492;2023-04-25T06:52:47;6.40;99.90
60309;DHT22;50313;52.894;6.492;2023-04-25T06:55:13;6.50;99.90
60309;DHT22;50313;52.894;6.492;2023-04-25T06:57:41;6.40;99.90
60309;DHT22;50313;52.894;6.492;2023-04-25T07:00:31;6.50;99.90
60309;DHT22;50313;52.894;6.492;2023-04-25T07:02:58;6.80;99.90
60309;DHT22;50313;52.894;6.492;2023-04-25T07:05:42;7.20;99.90
60309;DHT22;50313;52.894;6.492;2023-04-25T07:08:18;7.30;99.90
60309;DHT22;50313;52.894;6.492;2023-04-25T07:11:05;7.50;99.90
60309;DHT22;50313;52.894;6.492;2023-04-25T07:13:33;7.50;99.90
60309;DHT22;50313;52.894;6.492;2023-04-25T07:16:11;7.40;99.90
60309;DHT22;50313;52.894;6.492;2023-04-25T07:18:40;7.20;99.90
60309;DHT22;50313;52.894;6.492;2023-04-25T07:21:09;7.20;99.90
60309;DHT22;50313;52.894;6.492;2023-04-25T07:24:05;7.10;99.90
60309;DHT22;50313;52.894;6.492;2023-04-25T07:26:31;7.10;99.90
60309;DHT22;50313;52.894;6.492;2023-04-25T07:29:04;6.90;99.90
60309;DHT22;50313;52.894;6.492;2023-04-25T07:32:21;7.00;99.90
60309;DHT22;50313;52.894;6.492;2023-04-25T07:34:57;7.10;99.90
60309;DHT22;50313;52.894;6.492;2023-04-25T07:37:31;7.20;99.90
60309;DHT22;50313;52.894;6.492;2023-04-25T07:39:59;7.40;99.90
60309;DHT22;50313;52.894;6.492;2023-04-25T07:42:29;7.60;99.90
60309;DHT22;50313;52.894;6.492;2023-04-25T07:44:55;7.70;99.90
60309;DHT22;50313;52.894;6.492;2023-04-25T07:47:26;8.00;99.90
60309;DHT22;50313;52.894;6.492;2023-04-25T07:49:59;7.90;99.90
60309;DHT22;50313;52.894;6.492;2023-04-25T07:52:33;7.70;99.90
60309;DHT22;50313;52.894;6.492;2023-04-25T07:55:01;7.30;99.90
60309;DHT22;50313;52.894;6.492;2023-04-25T07:57:43;7.00;99.90
60309;DHT22;50313;52.894;6.492;2023-04-25T08:00:15;6.80;99.90
60309;DHT22;50313;52.894;6.492;2023-04-25T08:02:51;6.60;99.90
60309;DHT22;50313;52.894;6.492;2023-04-25T08:05:37;6.40;99.90
60309;DHT22;50313;52.894;6.492;2023-04-25T08:08:03;6.40;99.90
60309;DHT22;50313;52.894;6.492;2023-04-25T08:10:37;6.30;99.90
60309;DHT22;50313;52.894;6.492;2023-04-25T08:13:18;6.40;99.90
60309;DHT22;50313;52.894;6.492;2023-04-25T08:16:05;6.60;99.90
60309;DHT22;50313;52.894;6.492;2023-04-25T08:18:43;7.00;99.90
60309;DHT22;50313;52.894;6.492;2023-04-25T08:24:12;7.40;99.90
60309;DHT22;50313;52.894;6.492;2023-04-25T08:26:43;7.50;99.90
60309;DHT22;50313;52.894;6.492;2023-04-25T08:29:16;7.70;99.90
60309;DHT22;50313;52.894;6.492;2023-04-25T08:31:47;7.70;99.90
60309;DHT22;50313;52.894;6.492;2023-04-25T08:34:13;7.90;99.90
60309;DHT22;50313;52.894;6.492;2023-04-25T08:36:39;8.10;99.90
60309;DHT22;50313;52.894;6.492;2023-04-25T08:39:20;8.20;99.90
60309;DHT22;50313;52.894;6.492;2023-04-25T08:41:49;8.50;99.90
60309;DHT22;50313;52.894;6.492;2023-04-25T08:57:57;8.60;99.90
60309;DHT22;50313;52.894;6.492;2023-04-25T09:00:26;8.70;99.90
60309;DHT22;50313;52.894;6.492;2023-04-25T09:07:10;9.00;99.90
60309;DHT22;50313;52.894;6.492;2023-04-25T09:36:00;6.30;99.90
60309;DHT22;50313;52.894;6.492;2023-04-25T09:38:32;6.50;99.90
60309;DHT22;50313;52.894;6.492;2023-04-25T09:41:11;6.70;99.90
60309;DHT22;50313;52.894;6.492;2023-04-25T09:44:00;7.10;99.90
60309;DHT22;50313;52.894;6.492;2023-04-25T09:47:02;7.80;99.90
60309;DHT22;50313;52.894;6.492;2023-04-25T09:49:48;8.10;99.90
60309;DHT22;50313;52.894;6.492;2023-04-25T09:52:30;8.10;99.90
60309;DHT22;50313;52.894;6.492;2023-04-25T09:55:11;8.00;99.90
60309;DHT22;50313;52.894;6.492;2023-04-25T09:57:53;7.40;99.90
60309;DHT22;50313;52.894;6.492;2023-04-25T10:00:44;6.60;99.90
60309;DHT22;50313;52.894;6.492;2023-04-25T10:03:13;5.90;99.90
60309;DHT22;50313;52.894;6.492;2023-04-25T10:09:16;5.90;99.90
60309;DHT22;50313;52.894;6.492;2023-04-25T10:12:34;5.80;99.90
60309;DHT22;50313;52.894;6.492;2023-04-25T10:15:31;6.10;99.90
60309;DHT22;50313;52.894;6.492;2023-04-25T10:28:20;7.80;99.90
60309;DHT22;50313;52.894;6.492;2023-04-25T10:31:22;8.50;99.90
60309;DHT22;50313;52.894;6.492;2023-04-25T10:34:25;8.90;99.90
60309;DHT22;50313;52.894;6.492;2023-04-25T10:38:00;8.70;99.90
60309;DHT22;50313;52.894;6.492;2023-04-25T11:02:13;10.00;99.90
60309;DHT22;50313;52.894;6.492;2023-04-25T11:07:49;9.10;99.90
60309;DHT22;50313;52.894;6.492;2023-04-25T11:11:07;9.00;99.90
60309;DHT22;50313;52.894;6.492;2023-04-25T11:17:39;9.20;99.90
60309;DHT22;50313;52.894;6.492;2023-04-25T11:21:03;8.70;99.90
60309;DHT22;50313;52.894;6.492;2023-04-25T11:23:48;8.80;99.90
60309;DHT22;50313;52.894;6.492;2023-04-25T11:33:26;8.90;99.90
60309;DHT22;50313;52.894;6.492;2023-04-25T11:36:08;8.70;99.90
60309;DHT22;50313;52.894;6.492;2023-04-25T11:45:59;7.70;99.90
60309;DHT22;50313;52.894;6.492;2023-04-25T11:49:08;8.30;99.90
60309;DHT22;50313;52.894;6.492;2023-04-25T11:51:43;8.60;99.90
60309;DHT22;50313;52.894;6.492;2023-04-25T11:54:39;8.70;99.90
60309;DHT22;50313;52.894;6.492;2023-04-25T12:05:12;8.10;99.90
60309;DHT22;50313;52.894;6.492;2023-04-25T12:07:58;8.50;99.90
60309;DHT22;50313;52.894;6.492;2023-04-25T12:10:48;8.50;99.90
60309;DHT22;50313;52.894;6.492;2023-04-25T12:17:01;8.10;99.90
60309;DHT22;50313;52.894;6.492;2023-04-25T12:20:12;7.50;99.90
60309;DHT22;50313;52.894;6.492;2023-04-25T12:26:53;7.70;99.90
60309;DHT22;50313;52.894;6.492;2023-04-25T12:30:11;8.60;99.90
60309;DHT22;50313;52.894;6.492;2023-04-25T12:33:01;8.80;99.90
60309;DHT22;50313;52.894;6.492;2023-04-25T12:36:17;8.20;99.90
60309;DHT22;50313;52.894;6.492;2023-04-25T12:40:33;7.10;99.90
60309;DHT22;50313;52.894;6.492;2023-04-25T12:51:19;7.80;99.90
60309;DHT22;50313;52.894;6.492;2023-04-25T13:25:17;9.70;99.90
60309;DHT22;50313;52.894;6.492;2023-04-25T13:41:22;9.00;99.90
60309;DHT22;50313;52.894;6.492;2023-04-25T14:44:11;9.30;99.60
60309;DHT22;50313;52.894;6.492;2023-04-25T14:47:00;10.00;96.80
60309;DHT22;50313;52.894;6.492;2023-04-25T14:49:50;9.50;94.90
60309;DHT22;50313;52.894;6.492;2023-04-25T14:56:09;8.80;95.60
60309;DHT22;50313;52.894;6.492;2023-04-25T14:59:18;8.70;96.50
60309;DHT22;50313;52.894;6.492;2023-04-25T15:02:04;9.30;97.50
60309;DHT22;50313;52.894;6.492;2023-04-25T15:04:36;9.60;96.50
60309;DHT22;50313;52.894;6.492;2023-04-25T15:07:10;9.70;94.40
60309;DHT22;50313;52.894;6.492;2023-04-25T15:09:44;9.70;95.10
60309;DHT22;50313;52.894;6.492;2023-04-25T15:12:57;10.20;93.60
60309;DHT22;50313;52.894;6.492;2023-04-25T15:15:59;10.40;91.10
60309;DHT22;50313;52.894;6.492;2023-04-25T15:18:49;10.60;91.70
60309;DHT22;50313;52.894;6.492;2023-04-25T15:21:33;10.50;87.30
60309;DHT22;50313;52.894;6.492;2023-04-25T15:30:33;9.50;89.00
60309;DHT22;50313;52.894;6.492;2023-04-25T15:37:01;9.20;92.20
60309;DHT22;50313;52.894;6.492;2023-04-25T15:39:44;9.30;92.40
60309;DHT22;50313;52.894;6.492;2023-04-25T15:46:18;8.80;94.00
60309;DHT22;50313;52.894;6.492;2023-04-25T16:19:12;9.20;98.30
60309;DHT22;50313;52.894;6.492;2023-04-25T16:30:18;8.00;99.90
60309;DHT22;50313;52.894;6.492;2023-04-25T17:29:21;8.70;97.00
60309;DHT22;50313;52.894;6.492;2023-04-25T18:15:04;7.50;96.90
60309;DHT22;50313;52.894;6.492;2023-04-25T18:18:18;7.40;98.50
60309;DHT22;50313;52.894;6.492;2023-04-25T18:21:33;7.20;99.90
60309;DHT22;50313;52.894;6.492;2023-04-25T18:27:49;7.00;99.90
60309;DHT22;50313;52.894;6.492;2023-04-25T18:31:00;6.80;99.90
60309;DHT22;50313;52.894;6.492;2023-04-25T18:42:06;6.50;99.90
60309;DHT22;50313;52.894;6.492;2023-04-25T18:48:40;6.30;99.90
60309;DHT22;50313;52.894;6.492;2023-04-25T18:51:52;6.10;99.90
60309;DHT22;50313;52.894;6.492;2023-04-25T18:55:12;6.00;99.90
60309;DHT22;50313;52.894;6.492;2023-04-25T19:21:03;5.30;99.90
60309;DHT22;50313;52.894;6.492;2023-04-25T19:27:41;4.90;99.90
60309;DHT22;50313;52.894;6.492;2023-04-25T19:36:49;4.80;99.90
60309;DHT22;50313;52.894;6.492;2023-04-25T20:09:58;4.70;99.90
60309;DHT22;50313;52.894;6.492;2023-04-25T20:19:54;4.90;99.90
60309;DHT22;50313;52.894;6.492;2023-04-25T20:22:26;4.80;99.90
60309;DHT22;50313;52.894;6.492;2023-04-25T20:32:27;4.80;99.90
60309;DHT22;50313;52.894;6.492;2023-04-25T20:34:56;4.70;99.90
60309;DHT22;50313;52.894;6.492;2023-04-25T20:37:34;4.80;99.90
60309;DHT22;50313;52.894;6.492;2023-04-25T20:40:34;4.80;99.90
60309;DHT22;50313;52.894;6.492;2023-04-25T20:43:03;4.80;99.90
60309;DHT22;50313;52.894;6.492;2023-04-25T20:45:30;4.70;99.90
60309;DHT22;50313;52.894;6.492;2023-04-25T20:48:04;4.70;99.90
60309;DHT22;50313;52.894;6.492;2023-04-25T20:50:47;4.60;99.90
60309;DHT22;50313;52.894;6.492;2023-04-25T20:53:29;4.60;99.90
60309;DHT22;50313;52.894;6.492;2023-04-25T20:56:07;4.50;99.90
60309;DHT22;50313;52.894;6.492;2023-04-25T20:58:56;4.40;99.90
60309;DHT22;50313;52.894;6.492;2023-04-25T21:01:25;4.40;99.90
60309;DHT22;50313;52.894;6.492;2023-04-25T21:03:54;4.30;99.90
60309;DHT22;50313;52.894;6.492;2023-04-25T21:06:22;4.30;99.90
60309;DHT22;50313;52.894;6.492;2023-04-25T21:08:52;4.20;99.90
60309;DHT22;50313;52.894;6.492;2023-04-25T21:11:31;4.10;99.90
60309;DHT22;50313;52.894;6.492;2023-04-25T21:14:15;4.10;99.90
60309;DHT22;50313;52.894;6.492;2023-04-25T21:16:55;4.00;99.90
60309;DHT22;50313;52.894;6.492;2023-04-25T21:19:47;4.00;99.90
60309;DHT22;50313;52.894;6.492;2023-04-25T21:22:22;4.00;99.90
60309;DHT22;50313;52.894;6.492;2023-04-25T21:25:11;3.90;99.90
60309;DHT22;50313;52.894;6.492;2023-04-25T21:31:01;3.80;99.90
60309;DHT22;50313;52.894;6.492;2023-04-25T21:33:37;3.70;99.90
60309;DHT22;50313;52.894;6.492;2023-04-25T21:36:05;3.60;99.90
60309;DHT22;50313;52.894;6.492;2023-04-25T21:38:44;3.70;99.90
60309;DHT22;50313;52.894;6.492;2023-04-25T21:41:27;3.60;99.90
60309;DHT22;50313;52.894;6.492;2023-04-25T21:44:18;3.60;99.90
60309;DHT22;50313;52.894;6.492;2023-04-25T21:47:07;3.60;99.90
60309;DHT22;50313;52.894;6.492;2023-04-25T21:49:43;3.50;99.90
60309;DHT22;50313;52.894;6.492;2023-04-25T21:52:19;3.50;99.90
60309;DHT22;50313;52.894;6.492;2023-04-25T21:55:08;3.40;99.90
60309;DHT22;50313;52.894;6.492;2023-04-25T21:57:57;3.40;99.90
60309;DHT22;50313;52.894;6.492;2023-04-25T22:00:33;3.40;99.90
60309;DHT22;50313;52.894;6.492;2023-04-25T22:03:10;3.40;99.90
60309;DHT22;50313;52.894;6.492;2023-04-25T22:05:51;3.40;99.90
60309;DHT22;50313;52.894;6.492;2023-04-25T22:08:30;3.40;99.90
60309;DHT22;50313;52.894;6.492;2023-04-25T22:11:05;3.30;99.90
60309;DHT22;50313;52.894;6.492;2023-04-25T22:13:42;3.30;99.90
60309;DHT22;50313;52.894;6.492;2023-04-25T22:16:33;3.20;99.90
60309;DHT22;50313;52.894;6.492;2023-04-25T22:19:26;3.10;99.90
60309;DHT22;50313;52.894;6.492;2023-04-25T22:22:17;3.10;99.90
60309;DHT22;50313;52.894;6.492;2023-04-25T22:24:45;3.00;99.90
60309;DHT22;50313;52.894;6.492;2023-04-25T22:27:28;3.00;99.90
60309;DHT22;50313;52.894;6.492;2023-04-25T22:29:57;3.00;99.90
60309;DHT22;50313;52.894;6.492;2023-04-25T22:32:25;2.90;99.90
60309;DHT22;50313;52.894;6.492;2023-04-25T22:34:54;2.90;99.90
60309;DHT22;50313;52.894;6.492;2023-04-25T22:37:30;2.90;99.90
60309;DHT22;50313;52.894;6.492;2023-04-25T22:43:13;2.90;99.90
60309;DHT22;50313;52.894;6.492;2023-04-25T22:45:52;2.90;99.90
60309;DHT22;50313;52.894;6.492;2023-04-25T22:48:46;3.00;99.90
60309;DHT22;50313;52.894;6.492;2023-04-25T22:51:14;3.10;99.90
60309;DHT22;50313;52.894;6.492;2023-04-25T22:53:43;3.20;99.90
60309;DHT22;50313;52.894;6.492;2023-04-25T22:59:25;3.30;99.90
60309;DHT22;50313;52.894;6.492;2023-04-25T23:02:04;3.30;99.90
60309;DHT22;50313;52.894;6.492;2023-04-25T23:04:53;3.30;99.90
60309;DHT22;50313;52.894;6.492;2023-04-25T23:07:27;3.20;99.90
60309;DHT22;50313;52.894;6.492;2023-04-25T23:09:56;3.20;99.90
60309;DHT22;50313;52.894;6.492;2023-04-25T23:12:22;3.20;99.90
60309;DHT22;50313;52.894;6.492;2023-04-25T23:14:59;3.20;99.90
60309;DHT22;50313;52.894;6.492;2023-04-25T23:17:29;3.10;99.90
60309;DHT22;50313;52.894;6.492;2023-04-25T23:20:16;3.20;99.90
60309;DHT22;50313;52.894;6.492;2023-04-25T23:23:00;3.10;99.90
60309;DHT22;50313;52.894;6.492;2023-04-25T23:25:35;3.10;99.90
60309;DHT22;50313;52.894;6.492;2023-04-25T23:28:29;3.00;99.90
60309;DHT22;50313;52.894;6.492;2023-04-25T23:31:07;3.00;99.90
60309;DHT22;50313;52.894;6.492;2023-04-25T23:33:49;2.90;99.90
60309;DHT22;50313;52.894;6.492;2023-04-25T23:36:41;2.80;99.90
60309;DHT22;50313;52.894;6.492;2023-04-25T23:39:14;2.80;99.90
60309;DHT22;50313;52.894;6.492;2023-04-25T23:41:56;2.60;99.90
60309;DHT22;50313;52.894;6.492;2023-04-25T23:44:27;2.70;99.90
60309;DHT22;50313;52.894;6.492;2023-04-25T23:46:53;2.60;99.90
60309;DHT22;50313;52.894;6.492;2023-04-25T23:49:57;2.50;99.90
60309;DHT22;50313;52.894;6.492;2023-04-25T23:52:29;2.50;99.90
60309;DHT22;50313;52.894;6.492;2023-04-25T23:55:09;2.50;99.90
60309;DHT22;50313;52.894;6.492;2023-04-25T23:58:05;2.50;99.90
